sensor_id;sensor_type;location;lat;lon;timestamp;P1;durP1;ratioP1;P2;durP2;ratioP2
81799;SDS011;71195;52.528;5.704;2023-09-08T00:01:27;6.47;;;3.95;;
81799;SDS011;71195;52.528;5.704;2023-09-08T00:03:56;7.15;;;3.50;;
81799;SDS011;71195;52.528;5.704;2023-09-08T00:06:26;5.10;;;3.38;;
81799;SDS011;71195;52.528;5.704;2023-09-08T00:08:55;7.40;;;3.75;;
81799;SDS011;71195;52.528;5.704;2023-09-08T00:11:24;6.00;;;3.60;;
81799;SDS011;71195;52.528;5.704;2023-09-08T00:13:56;6.30;;;3.60;;
81799;SDS011;71195;52.528;5.704;2023-09-08T00:16:25;7.20;;;4.13;;
81799;SDS011;71195;52.528;5.704;2023-09-08T00:18:55;8.10;;;3.83;;
81799;SDS011;71195;52.528;5.704;2023-09-08T00:21:25;7.20;;;3.53;;
81799;SDS011;71195;52.528;5.704;2023-09-08T00:23:55;6.50;;;3.97;;
81799;SDS011;71195;52.528;5.704;2023-09-08T00:26:24;8.68;;;4.28;;
81799;SDS011;71195;52.528;5.704;2023-09-08T00:28:56;7.28;;;3.75;;
81799;SDS011;71195;52.528;5.704;2023-09-08T00:31:25;6.03;;;4.30;;
81799;SDS011;71195;52.528;5.704;2023-09-08T00:33:54;7.97;;;3.80;;
81799;SDS011;71195;52.528;5.704;2023-09-08T00:36:24;9.32;;;3.63;;
81799;SDS011;71195;52.528;5.704;2023-09-08T00:38:53;7.85;;;4.30;;
81799;SDS011;71195;52.528;5.704;2023-09-08T00:41:22;7.60;;;3.78;;
81799;SDS011;71195;52.528;5.704;2023-09-08T00:43:57;5.72;;;3.60;;
81799;SDS011;71195;52.528;5.704;2023-09-08T00:46:26;9.05;;;4.25;;
81799;SDS011;71195;52.528;5.704;2023-09-08T00:48:56;6.18;;;3.75;;
81799;SDS011;71195;52.528;5.704;2023-09-08T00:51:25;5.95;;;4.07;;
81799;SDS011;71195;52.528;5.704;2023-09-08T00:53:55;6.55;;;3.10;;
81799;SDS011;71195;52.528;5.704;2023-09-08T00:56:25;6.05;;;3.65;;
81799;SDS011;71195;52.528;5.704;2023-09-08T00:58:57;6.63;;;4.22;;
81799;SDS011;71195;52.528;5.704;2023-09-08T01:01:28;6.22;;;4.03;;
81799;SDS011;71195;52.528;5.704;2023-09-08T01:03:57;7.95;;;3.97;;
81799;SDS011;71195;52.528;5.704;2023-09-08T01:06:26;5.57;;;3.58;;
81799;SDS011;71195;52.528;5.704;2023-09-08T01:08:58;6.47;;;2.60;;
81799;SDS011;71195;52.528;5.704;2023-09-08T01:11:28;5.75;;;3.95;;
81799;SDS011;71195;52.528;5.704;2023-09-08T01:14:00;7.85;;;3.38;;
81799;SDS011;71195;52.528;5.704;2023-09-08T01:16:29;6.63;;;4.22;;
81799;SDS011;71195;52.528;5.704;2023-09-08T01:18:58;5.50;;;3.75;;
81799;SDS011;71195;52.528;5.704;2023-09-08T01:27:35;6.15;;;3.78;;
81799;SDS011;71195;52.528;5.704;2023-09-08T01:30:07;7.80;;;3.60;;
81799;SDS011;71195;52.528;5.704;2023-09-08T01:32:37;7.53;;;3.85;;
81799;SDS011;71195;52.528;5.704;2023-09-08T01:35:07;7.03;;;4.35;;
81799;SDS011;71195;52.528;5.704;2023-09-08T01:37:39;7.13;;;3.90;;
81799;SDS011;71195;52.528;5.704;2023-09-08T01:40:12;7.85;;;4.32;;
81799;SDS011;71195;52.528;5.704;2023-09-08T01:42:41;6.80;;;4.30;;
81799;SDS011;71195;52.528;5.704;2023-09-08T01:45:11;7.20;;;4.25;;
81799;SDS011;71195;52.528;5.704;2023-09-08T01:47:41;7.25;;;3.95;;
81799;SDS011;71195;52.528;5.704;2023-09-08T01:50:10;6.35;;;4.45;;
81799;SDS011;71195;52.528;5.704;2023-09-08T01:52:40;5.80;;;4.00;;
81799;SDS011;71195;52.528;5.704;2023-09-08T01:55:12;5.63;;;4.47;;
81799;SDS011;71195;52.528;5.704;2023-09-08T02:00:12;5.93;;;3.47;;
81799;SDS011;71195;52.528;5.704;2023-09-08T02:02:42;6.93;;;4.72;;
81799;SDS011;71195;52.528;5.704;2023-09-08T02:05:11;7.07;;;4.07;;
81799;SDS011;71195;52.528;5.704;2023-09-08T02:07:41;6.82;;;4.30;;
81799;SDS011;71195;52.528;5.704;2023-09-08T02:10:13;6.55;;;4.30;;
81799;SDS011;71195;52.528;5.704;2023-09-08T02:15:11;8.55;;;4.30;;
81799;SDS011;71195;52.528;5.704;2023-09-08T02:17:42;6.53;;;3.90;;
81799;SDS011;71195;52.528;5.704;2023-09-08T02:20:12;7.43;;;4.50;;
81799;SDS011;71195;52.528;5.704;2023-09-08T02:22:41;8.00;;;3.90;;
81799;SDS011;71195;52.528;5.704;2023-09-08T02:25:13;6.22;;;4.07;;
81799;SDS011;71195;52.528;5.704;2023-09-08T02:27:43;8.52;;;4.57;;
81799;SDS011;71195;52.528;5.704;2023-09-08T02:30:12;7.55;;;3.95;;
81799;SDS011;71195;52.528;5.704;2023-09-08T02:32:41;7.38;;;4.32;;
81799;SDS011;71195;52.528;5.704;2023-09-08T02:35:12;7.25;;;4.55;;
81799;SDS011;71195;52.528;5.704;2023-09-08T02:37:42;7.53;;;4.00;;
81799;SDS011;71195;52.528;5.704;2023-09-08T02:40:14;6.85;;;4.32;;
81799;SDS011;71195;52.528;5.704;2023-09-08T02:42:44;6.55;;;3.83;;
81799;SDS011;71195;52.528;5.704;2023-09-08T02:45:14;6.50;;;4.10;;
81799;SDS011;71195;52.528;5.704;2023-09-08T02:47:44;7.53;;;3.90;;
81799;SDS011;71195;52.528;5.704;2023-09-08T02:50:13;8.13;;;4.50;;
81799;SDS011;71195;52.528;5.704;2023-09-08T02:52:42;8.82;;;4.25;;
81799;SDS011;71195;52.528;5.704;2023-09-08T02:55:14;6.45;;;4.03;;
81799;SDS011;71195;52.528;5.704;2023-09-08T02:57:44;7.85;;;4.80;;
81799;SDS011;71195;52.528;5.704;2023-09-08T03:00:13;8.23;;;4.30;;
81799;SDS011;71195;52.528;5.704;2023-09-08T03:02:43;9.05;;;4.00;;
81799;SDS011;71195;52.528;5.704;2023-09-08T03:05:12;8.38;;;4.70;;
81799;SDS011;71195;52.528;5.704;2023-09-08T03:07:41;9.00;;;5.05;;
81799;SDS011;71195;52.528;5.704;2023-09-08T03:10:11;6.55;;;4.65;;
81799;SDS011;71195;52.528;5.704;2023-09-08T03:12:44;7.30;;;4.70;;
81799;SDS011;71195;52.528;5.704;2023-09-08T03:15:13;7.75;;;4.40;;
81799;SDS011;71195;52.528;5.704;2023-09-08T03:17:43;5.80;;;4.00;;
81799;SDS011;71195;52.528;5.704;2023-09-08T03:20:13;6.90;;;4.50;;
81799;SDS011;71195;52.528;5.704;2023-09-08T03:22:42;8.48;;;4.28;;
81799;SDS011;71195;52.528;5.704;2023-09-08T03:25:13;7.65;;;4.60;;
81799;SDS011;71195;52.528;5.704;2023-09-08T03:27:45;7.28;;;4.28;;
81799;SDS011;71195;52.528;5.704;2023-09-08T03:30:14;5.95;;;4.43;;
81799;SDS011;71195;52.528;5.704;2023-09-08T03:32:43;8.55;;;4.53;;
81799;SDS011;71195;52.528;5.704;2023-09-08T03:35:13;6.97;;;4.07;;
81799;SDS011;71195;52.528;5.704;2023-09-08T03:37:42;10.38;;;4.97;;
81799;SDS011;71195;52.528;5.704;2023-09-08T03:40:12;10.93;;;4.85;;
81799;SDS011;71195;52.528;5.704;2023-09-08T03:42:41;9.10;;;4.90;;
81799;SDS011;71195;52.528;5.704;2023-09-08T03:45:13;7.07;;;4.65;;
81799;SDS011;71195;52.528;5.704;2023-09-08T03:47:42;9.55;;;5.15;;
81799;SDS011;71195;52.528;5.704;2023-09-08T03:50:11;8.82;;;4.65;;
81799;SDS011;71195;52.528;5.704;2023-09-08T03:52:41;7.82;;;4.35;;
81799;SDS011;71195;52.528;5.704;2023-09-08T03:55:10;9.13;;;4.68;;
81799;SDS011;71195;52.528;5.704;2023-09-08T03:57:39;8.25;;;4.93;;
81799;SDS011;71195;52.528;5.704;2023-09-08T04:00:13;6.97;;;4.78;;
81799;SDS011;71195;52.528;5.704;2023-09-08T04:02:46;8.68;;;5.05;;
81799;SDS011;71195;52.528;5.704;2023-09-08T04:05:15;8.30;;;4.60;;
81799;SDS011;71195;52.528;5.704;2023-09-08T04:07:45;7.32;;;4.57;;
81799;SDS011;71195;52.528;5.704;2023-09-08T04:10:16;5.75;;;4.07;;
81799;SDS011;71195;52.528;5.704;2023-09-08T04:12:46;7.88;;;5.45;;
81799;SDS011;71195;52.528;5.704;2023-09-08T04:15:18;8.30;;;4.93;;
81799;SDS011;71195;52.528;5.704;2023-09-08T04:17:47;9.45;;;5.55;;
81799;SDS011;71195;52.528;5.704;2023-09-08T04:20:17;8.52;;;5.30;;
81799;SDS011;71195;52.528;5.704;2023-09-08T04:22:47;6.70;;;4.53;;
81799;SDS011;71195;52.528;5.704;2023-09-08T04:25:16;9.35;;;4.85;;
81799;SDS011;71195;52.528;5.704;2023-09-08T04:27:46;8.20;;;5.35;;
81799;SDS011;71195;52.528;5.704;2023-09-08T04:30:18;8.93;;;4.90;;
81799;SDS011;71195;52.528;5.704;2023-09-08T04:32:47;8.00;;;5.28;;
81799;SDS011;71195;52.528;5.704;2023-09-08T04:35:16;8.63;;;5.32;;
81799;SDS011;71195;52.528;5.704;2023-09-08T04:37:45;8.02;;;4.88;;
81799;SDS011;71195;52.528;5.704;2023-09-08T04:40:15;11.50;;;5.20;;
81799;SDS011;71195;52.528;5.704;2023-09-08T04:42:45;8.73;;;5.20;;
81799;SDS011;71195;52.528;5.704;2023-09-08T04:45:14;9.15;;;5.15;;
81799;SDS011;71195;52.528;5.704;2023-09-08T04:47:46;9.05;;;5.32;;
81799;SDS011;71195;52.528;5.704;2023-09-08T04:50:17;12.10;;;5.22;;
81799;SDS011;71195;52.528;5.704;2023-09-08T04:52:46;8.23;;;4.43;;
81799;SDS011;71195;52.528;5.704;2023-09-08T04:55:16;9.15;;;5.03;;
81799;SDS011;71195;52.528;5.704;2023-09-08T04:57:46;10.63;;;5.82;;
81799;SDS011;71195;52.528;5.704;2023-09-08T05:00:16;9.98;;;5.40;;
81799;SDS011;71195;52.528;5.704;2023-09-08T05:02:49;8.35;;;5.00;;
81799;SDS011;71195;52.528;5.704;2023-09-08T05:05:18;11.50;;;5.57;;
81799;SDS011;71195;52.528;5.704;2023-09-08T05:07:47;8.07;;;5.13;;
81799;SDS011;71195;52.528;5.704;2023-09-08T05:10:17;9.23;;;5.47;;
81799;SDS011;71195;52.528;5.704;2023-09-08T05:12:47;8.90;;;5.15;;
81799;SDS011;71195;52.528;5.704;2023-09-08T05:15:16;10.77;;;5.97;;
81799;SDS011;71195;52.528;5.704;2023-09-08T05:17:53;13.77;;;5.40;;
81799;SDS011;71195;52.528;5.704;2023-09-08T05:20:24;11.50;;;6.03;;
81799;SDS011;71195;52.528;5.704;2023-09-08T05:22:53;8.88;;;5.63;;
81799;SDS011;71195;52.528;5.704;2023-09-08T05:25:22;9.20;;;5.15;;
81799;SDS011;71195;52.528;5.704;2023-09-08T05:27:52;9.10;;;5.53;;
81799;SDS011;71195;52.528;5.704;2023-09-08T05:30:22;7.90;;;5.22;;
81799;SDS011;71195;52.528;5.704;2023-09-08T05:32:54;10.13;;;5.45;;
81799;SDS011;71195;52.528;5.704;2023-09-08T05:35:23;11.82;;;5.38;;
81799;SDS011;71195;52.528;5.704;2023-09-08T05:37:52;11.48;;;5.53;;
81799;SDS011;71195;52.528;5.704;2023-09-08T05:40:21;10.48;;;6.13;;
81799;SDS011;71195;52.528;5.704;2023-09-08T05:42:52;9.45;;;7.13;;
81799;SDS011;71195;52.528;5.704;2023-09-08T05:45:21;10.32;;;5.78;;
81799;SDS011;71195;52.528;5.704;2023-09-08T05:47:54;7.47;;;5.53;;
81799;SDS011;71195;52.528;5.704;2023-09-08T05:50:23;10.30;;;5.35;;
81799;SDS011;71195;52.528;5.704;2023-09-08T05:52:53;9.85;;;5.65;;
81799;SDS011;71195;52.528;5.704;2023-09-08T05:55:22;7.63;;;4.88;;
81799;SDS011;71195;52.528;5.704;2023-09-08T05:57:52;11.15;;;6.30;;
81799;SDS011;71195;52.528;5.704;2023-09-08T06:00:21;7.93;;;6.18;;
81799;SDS011;71195;52.528;5.704;2023-09-08T06:02:54;10.30;;;5.60;;
81799;SDS011;71195;52.528;5.704;2023-09-08T06:07:53;10.73;;;6.53;;
81799;SDS011;71195;52.528;5.704;2023-09-08T06:10:23;11.80;;;5.90;;
81799;SDS011;71195;52.528;5.704;2023-09-08T06:12:53;11.35;;;6.82;;
81799;SDS011;71195;52.528;5.704;2023-09-08T06:15:22;9.35;;;6.05;;
81799;SDS011;71195;52.528;5.704;2023-09-08T06:17:54;10.27;;;6.75;;
81799;SDS011;71195;52.528;5.704;2023-09-08T06:22:53;9.25;;;5.57;;
81799;SDS011;71195;52.528;5.704;2023-09-08T06:25:22;9.23;;;6.78;;
81799;SDS011;71195;52.528;5.704;2023-09-08T06:27:52;12.55;;;6.35;;
81799;SDS011;71195;52.528;5.704;2023-09-08T06:30:22;9.82;;;6.32;;
81799;SDS011;71195;52.528;5.704;2023-09-08T06:32:54;10.13;;;6.38;;
81799;SDS011;71195;52.528;5.704;2023-09-08T06:35:23;11.35;;;6.43;;
81799;SDS011;71195;52.528;5.704;2023-09-08T06:37:54;9.48;;;5.90;;
81799;SDS011;71195;52.528;5.704;2023-09-08T06:40:24;10.27;;;5.93;;
81799;SDS011;71195;52.528;5.704;2023-09-08T06:42:54;11.68;;;6.30;;
81799;SDS011;71195;52.528;5.704;2023-09-08T06:45:37;10.20;;;6.20;;
81799;SDS011;71195;52.528;5.704;2023-09-08T06:48:10;10.02;;;5.95;;
81799;SDS011;71195;52.528;5.704;2023-09-08T06:50:39;11.20;;;6.45;;
81799;SDS011;71195;52.528;5.704;2023-09-08T06:53:09;9.68;;;6.30;;
81799;SDS011;71195;52.528;5.704;2023-09-08T06:55:38;10.75;;;6.75;;
81799;SDS011;71195;52.528;5.704;2023-09-08T06:58:08;12.18;;;6.88;;
81799;SDS011;71195;52.528;5.704;2023-09-08T07:00:38;10.75;;;6.20;;
81799;SDS011;71195;52.528;5.704;2023-09-08T07:03:10;11.23;;;6.82;;
81799;SDS011;71195;52.528;5.704;2023-09-08T07:05:39;13.80;;;7.03;;
81799;SDS011;71195;52.528;5.704;2023-09-08T07:08:10;17.00;;;7.10;;
81799;SDS011;71195;52.528;5.704;2023-09-08T07:10:39;12.40;;;7.55;;
81799;SDS011;71195;52.528;5.704;2023-09-08T07:13:08;12.45;;;6.32;;
81799;SDS011;71195;52.528;5.704;2023-09-08T07:15:37;11.18;;;7.40;;
81799;SDS011;71195;52.528;5.704;2023-09-08T07:18:09;12.32;;;6.43;;
81799;SDS011;71195;52.528;5.704;2023-09-08T07:20:39;11.00;;;7.40;;
81799;SDS011;71195;52.528;5.704;2023-09-08T07:23:08;12.43;;;6.53;;
81799;SDS011;71195;52.528;5.704;2023-09-08T07:25:37;11.23;;;6.80;;
81799;SDS011;71195;52.528;5.704;2023-09-08T07:28:07;10.77;;;6.60;;
81799;SDS011;71195;52.528;5.704;2023-09-08T07:30:36;13.25;;;6.85;;
81799;SDS011;71195;52.528;5.704;2023-09-08T07:33:05;13.57;;;7.50;;
81799;SDS011;71195;52.528;5.704;2023-09-08T07:35:39;12.25;;;7.45;;
81799;SDS011;71195;52.528;5.704;2023-09-08T07:38:08;12.07;;;7.40;;
81799;SDS011;71195;52.528;5.704;2023-09-08T07:40:38;11.15;;;6.72;;
81799;SDS011;71195;52.528;5.704;2023-09-08T07:43:07;13.23;;;7.22;;
81799;SDS011;71195;52.528;5.704;2023-09-08T07:45:36;15.02;;;7.30;;
81799;SDS011;71195;52.528;5.704;2023-09-08T07:48:06;12.25;;;6.93;;
81799;SDS011;71195;52.528;5.704;2023-09-08T07:50:35;12.60;;;6.97;;
81799;SDS011;71195;52.528;5.704;2023-09-08T07:53:07;10.77;;;7.10;;
81799;SDS011;71195;52.528;5.704;2023-09-08T07:55:37;13.50;;;6.80;;
81799;SDS011;71195;52.528;5.704;2023-09-08T07:58:07;12.05;;;6.53;;
81799;SDS011;71195;52.528;5.704;2023-09-08T08:00:36;12.48;;;7.50;;
81799;SDS011;71195;52.528;5.704;2023-09-08T08:03:06;13.38;;;6.00;;
81799;SDS011;71195;52.528;5.704;2023-09-08T08:05:35;13.48;;;6.60;;
81799;SDS011;71195;52.528;5.704;2023-09-08T08:08:07;10.13;;;6.57;;
81799;SDS011;71195;52.528;5.704;2023-09-08T08:10:36;9.23;;;5.75;;
81799;SDS011;71195;52.528;5.704;2023-09-08T08:13:05;10.27;;;5.38;;
81799;SDS011;71195;52.528;5.704;2023-09-08T08:15:35;8.75;;;5.20;;
81799;SDS011;71195;52.528;5.704;2023-09-08T08:18:05;8.60;;;5.63;;
81799;SDS011;71195;52.528;5.704;2023-09-08T08:20:35;9.32;;;5.75;;
81799;SDS011;71195;52.528;5.704;2023-09-08T08:23:07;9.13;;;4.95;;
81799;SDS011;71195;52.528;5.704;2023-09-08T08:25:37;10.43;;;5.45;;
81799;SDS011;71195;52.528;5.704;2023-09-08T08:28:06;9.48;;;4.90;;
81799;SDS011;71195;52.528;5.704;2023-09-08T08:30:35;9.35;;;5.20;;
81799;SDS011;71195;52.528;5.704;2023-09-08T08:33:04;8.80;;;5.32;;
81799;SDS011;71195;52.528;5.704;2023-09-08T08:35:34;7.53;;;4.85;;
81799;SDS011;71195;52.528;5.704;2023-09-08T08:38:03;9.68;;;5.25;;
81799;SDS011;71195;52.528;5.704;2023-09-08T08:40:37;8.63;;;4.80;;
81799;SDS011;71195;52.528;5.704;2023-09-08T08:43:07;7.38;;;4.38;;
81799;SDS011;71195;52.528;5.704;2023-09-08T08:45:36;8.98;;;5.55;;
81799;SDS011;71195;52.528;5.704;2023-09-08T08:48:07;8.75;;;4.50;;
81799;SDS011;71195;52.528;5.704;2023-09-08T08:50:36;8.45;;;4.20;;
81799;SDS011;71195;52.528;5.704;2023-09-08T08:53:09;12.88;;;4.70;;
81799;SDS011;71195;52.528;5.704;2023-09-08T08:55:40;7.28;;;4.82;;
81799;SDS011;71195;52.528;5.704;2023-09-08T08:58:10;8.90;;;5.55;;
81799;SDS011;71195;52.528;5.704;2023-09-08T09:00:40;8.57;;;4.65;;
81799;SDS011;71195;52.528;5.704;2023-09-08T09:03:11;9.18;;;4.75;;
81799;SDS011;71195;52.528;5.704;2023-09-08T09:05:41;6.25;;;4.53;;
81799;SDS011;71195;52.528;5.704;2023-09-08T09:08:14;6.97;;;4.75;;
81799;SDS011;71195;52.528;5.704;2023-09-08T09:10:45;7.25;;;5.07;;
81799;SDS011;71195;52.528;5.704;2023-09-08T09:13:14;6.25;;;4.93;;
81799;SDS011;71195;52.528;5.704;2023-09-08T09:15:44;7.25;;;4.55;;
81799;SDS011;71195;52.528;5.704;2023-09-08T09:18:14;7.93;;;4.78;;
81799;SDS011;71195;52.528;5.704;2023-09-08T09:20:52;9.38;;;5.28;;
81799;SDS011;71195;52.528;5.704;2023-09-08T09:23:32;6.40;;;4.57;;
81799;SDS011;71195;52.528;5.704;2023-09-08T09:26:03;7.78;;;4.75;;
81799;SDS011;71195;52.528;5.704;2023-09-08T09:28:32;8.00;;;4.15;;
81799;SDS011;71195;52.528;5.704;2023-09-08T09:31:01;7.03;;;4.93;;
81799;SDS011;71195;52.528;5.704;2023-09-08T09:33:30;10.45;;;5.15;;
81799;SDS011;71195;52.528;5.704;2023-09-08T09:36:00;8.75;;;5.25;;
81799;SDS011;71195;52.528;5.704;2023-09-08T09:38:31;9.07;;;5.70;;
81799;SDS011;71195;52.528;5.704;2023-09-08T09:41:03;9.55;;;6.13;;
81799;SDS011;71195;52.528;5.704;2023-09-08T09:43:33;8.30;;;5.13;;
81799;SDS011;71195;52.528;5.704;2023-09-08T09:46:02;7.78;;;4.68;;
81799;SDS011;71195;52.528;5.704;2023-09-08T09:48:31;7.80;;;4.53;;
81799;SDS011;71195;52.528;5.704;2023-09-08T09:51:14;6.85;;;4.82;;
81799;SDS011;71195;52.528;5.704;2023-09-08T09:53:46;7.65;;;4.28;;
81799;SDS011;71195;52.528;5.704;2023-09-08T09:56:20;10.40;;;4.43;;
81799;SDS011;71195;52.528;5.704;2023-09-08T10:01:24;7.47;;;5.32;;
81799;SDS011;71195;52.528;5.704;2023-09-08T10:03:54;6.22;;;4.32;;
81799;SDS011;71195;52.528;5.704;2023-09-08T10:06:23;10.20;;;5.22;;
81799;SDS011;71195;52.528;5.704;2023-09-08T10:11:28;5.30;;;4.07;;
81799;SDS011;71195;52.528;5.704;2023-09-08T10:13:58;6.68;;;4.13;;
81799;SDS011;71195;52.528;5.704;2023-09-08T10:16:28;7.38;;;4.35;;
81799;SDS011;71195;52.528;5.704;2023-09-08T10:19:02;7.47;;;4.57;;
81799;SDS011;71195;52.528;5.704;2023-09-08T10:21:39;5.57;;;4.47;;
81799;SDS011;71195;52.528;5.704;2023-09-08T10:24:15;8.07;;;4.85;;
81799;SDS011;71195;52.528;5.704;2023-09-08T10:26:51;6.45;;;4.65;;
81799;SDS011;71195;52.528;5.704;2023-09-08T10:29:25;7.30;;;4.63;;
81799;SDS011;71195;52.528;5.704;2023-09-08T10:36:54;7.28;;;3.60;;
81799;SDS011;71195;52.528;5.704;2023-09-08T10:39:30;6.93;;;3.78;;
81799;SDS011;71195;52.528;5.704;2023-09-08T10:44:59;5.97;;;4.53;;
81799;SDS011;71195;52.528;5.704;2023-09-08T10:47:32;7.43;;;4.40;;
81799;SDS011;71195;52.528;5.704;2023-09-08T10:50:09;7.43;;;5.35;;
81799;SDS011;71195;52.528;5.704;2023-09-08T10:52:46;8.55;;;4.13;;
81799;SDS011;71195;52.528;5.704;2023-09-08T10:55:39;5.78;;;3.85;;
81799;SDS011;71195;52.528;5.704;2023-09-08T10:58:17;4.95;;;3.88;;
81799;SDS011;71195;52.528;5.704;2023-09-08T11:00:47;5.63;;;4.40;;
81799;SDS011;71195;52.528;5.704;2023-09-08T11:03:26;8.20;;;5.03;;
81799;SDS011;71195;52.528;5.704;2023-09-08T11:05:56;6.85;;;4.88;;
81799;SDS011;71195;52.528;5.704;2023-09-08T11:08:26;5.10;;;2.80;;
81799;SDS011;71195;52.528;5.704;2023-09-08T11:10:57;5.78;;;4.15;;
81799;SDS011;71195;52.528;5.704;2023-09-08T11:13:27;6.13;;;4.35;;
81799;SDS011;71195;52.528;5.704;2023-09-08T11:15:57;4.97;;;4.03;;
81799;SDS011;71195;52.528;5.704;2023-09-08T11:18:26;6.18;;;3.85;;
81799;SDS011;71195;52.528;5.704;2023-09-08T11:20:56;5.78;;;3.63;;
81799;SDS011;71195;52.528;5.704;2023-09-08T11:23:26;4.97;;;3.33;;
81799;SDS011;71195;52.528;5.704;2023-09-08T11:25:58;7.13;;;3.50;;
81799;SDS011;71195;52.528;5.704;2023-09-08T11:28:28;9.00;;;3.53;;
81799;SDS011;71195;52.528;5.704;2023-09-08T11:30:57;4.78;;;3.78;;
81799;SDS011;71195;52.528;5.704;2023-09-08T11:33:27;4.78;;;3.75;;
81799;SDS011;71195;52.528;5.704;2023-09-08T11:35:56;7.78;;;3.45;;
81799;SDS011;71195;52.528;5.704;2023-09-08T11:38:25;4.75;;;3.50;;
81799;SDS011;71195;52.528;5.704;2023-09-08T11:40:58;6.35;;;4.18;;
81799;SDS011;71195;52.528;5.704;2023-09-08T11:43:29;5.20;;;3.45;;
81799;SDS011;71195;52.528;5.704;2023-09-08T11:45:58;4.40;;;3.28;;
81799;SDS011;71195;52.528;5.704;2023-09-08T11:48:28;5.78;;;4.00;;
81799;SDS011;71195;52.528;5.704;2023-09-08T11:50:57;6.22;;;3.85;;
81799;SDS011;71195;52.528;5.704;2023-09-08T11:53:26;4.80;;;3.33;;
81799;SDS011;71195;52.528;5.704;2023-09-08T11:56:01;5.10;;;3.63;;
81799;SDS011;71195;52.528;5.704;2023-09-08T11:58:31;5.13;;;3.30;;
81799;SDS011;71195;52.528;5.704;2023-09-08T12:01:00;4.53;;;3.70;;
81799;SDS011;71195;52.528;5.704;2023-09-08T12:03:31;4.32;;;3.88;;
81799;SDS011;71195;52.528;5.704;2023-09-08T12:06:01;5.45;;;3.10;;
81799;SDS011;71195;52.528;5.704;2023-09-08T12:08:30;4.72;;;3.17;;
81799;SDS011;71195;52.528;5.704;2023-09-08T12:11:02;4.25;;;3.83;;
81799;SDS011;71195;52.528;5.704;2023-09-08T12:13:31;4.07;;;3.22;;
81799;SDS011;71195;52.528;5.704;2023-09-08T12:16:00;4.55;;;3.45;;
81799;SDS011;71195;52.528;5.704;2023-09-08T12:18:39;4.40;;;3.25;;
81799;SDS011;71195;52.528;5.704;2023-09-08T12:21:11;4.43;;;3.30;;
81799;SDS011;71195;52.528;5.704;2023-09-08T12:23:46;6.05;;;3.78;;
81799;SDS011;71195;52.528;5.704;2023-09-08T12:26:20;4.90;;;3.10;;
81799;SDS011;71195;52.528;5.704;2023-09-08T12:28:49;6.50;;;2.47;;
81799;SDS011;71195;52.528;5.704;2023-09-08T12:31:18;5.38;;;3.47;;
81799;SDS011;71195;52.528;5.704;2023-09-08T12:33:48;3.50;;;2.78;;
81799;SDS011;71195;52.528;5.704;2023-09-08T12:36:18;4.18;;;3.25;;
81799;SDS011;71195;52.528;5.704;2023-09-08T12:38:47;2.88;;;2.50;;
81799;SDS011;71195;52.528;5.704;2023-09-08T12:41:21;4.78;;;2.78;;
81799;SDS011;71195;52.528;5.704;2023-09-08T12:43:50;4.53;;;2.80;;
81799;SDS011;71195;52.528;5.704;2023-09-08T12:46:19;5.80;;;2.90;;
81799;SDS011;71195;52.528;5.704;2023-09-08T12:48:49;3.00;;;2.50;;
81799;SDS011;71195;52.528;5.704;2023-09-08T12:51:19;3.33;;;2.85;;
81799;SDS011;71195;52.528;5.704;2023-09-08T12:53:48;3.63;;;2.67;;
81799;SDS011;71195;52.528;5.704;2023-09-08T12:56:17;5.00;;;2.58;;
81799;SDS011;71195;52.528;5.704;2023-09-08T12:58:49;7.07;;;2.92;;
81799;SDS011;71195;52.528;5.704;2023-09-08T13:01:18;3.78;;;2.97;;
81799;SDS011;71195;52.528;5.704;2023-09-08T13:03:47;4.82;;;3.45;;
81799;SDS011;71195;52.528;5.704;2023-09-08T13:06:16;4.80;;;2.80;;
81799;SDS011;71195;52.528;5.704;2023-09-08T13:08:46;4.60;;;2.63;;
81799;SDS011;71195;52.528;5.704;2023-09-08T13:11:15;6.00;;;2.50;;
81799;SDS011;71195;52.528;5.704;2023-09-08T13:13:44;5.13;;;2.33;;
81799;SDS011;71195;52.528;5.704;2023-09-08T13:16:16;3.97;;;1.88;;
81799;SDS011;71195;52.528;5.704;2023-09-08T13:18:45;4.90;;;2.70;;
81799;SDS011;71195;52.528;5.704;2023-09-08T13:21:15;4.57;;;3.03;;
81799;SDS011;71195;52.528;5.704;2023-09-08T13:23:44;3.83;;;2.40;;
81799;SDS011;71195;52.528;5.704;2023-09-08T13:26:13;5.32;;;2.60;;
81799;SDS011;71195;52.528;5.704;2023-09-08T13:28:42;3.20;;;2.55;;
81799;SDS011;71195;52.528;5.704;2023-09-08T13:31:12;6.10;;;3.20;;
81799;SDS011;71195;52.528;5.704;2023-09-08T13:33:44;3.92;;;3.30;;
81799;SDS011;71195;52.528;5.704;2023-09-08T13:36:13;4.80;;;3.50;;
81799;SDS011;71195;52.528;5.704;2023-09-08T13:38:42;4.45;;;2.42;;
81799;SDS011;71195;52.528;5.704;2023-09-08T13:41:11;3.65;;;2.70;;
81799;SDS011;71195;52.528;5.704;2023-09-08T13:43:40;2.80;;;2.45;;
81799;SDS011;71195;52.528;5.704;2023-09-08T13:46:10;4.40;;;2.40;;
81799;SDS011;71195;52.528;5.704;2023-09-08T13:48:39;5.50;;;2.85;;
81799;SDS011;71195;52.528;5.704;2023-09-08T13:51:11;4.05;;;2.55;;
81799;SDS011;71195;52.528;5.704;2023-09-08T13:53:40;3.33;;;2.30;;
81799;SDS011;71195;52.528;5.704;2023-09-08T13:56:09;4.03;;;2.42;;
81799;SDS011;71195;52.528;5.704;2023-09-08T13:58:38;4.10;;;2.67;;
81799;SDS011;71195;52.528;5.704;2023-09-08T14:01:10;4.78;;;2.55;;
81799;SDS011;71195;52.528;5.704;2023-09-08T14:03:40;4.40;;;2.65;;
81799;SDS011;71195;52.528;5.704;2023-09-08T14:06:11;5.60;;;2.80;;
81799;SDS011;71195;52.528;5.704;2023-09-08T14:08:41;4.47;;;3.03;;
81799;SDS011;71195;52.528;5.704;2023-09-08T14:11:10;5.32;;;3.20;;
81799;SDS011;71195;52.528;5.704;2023-09-08T14:13:40;3.78;;;2.88;;
81799;SDS011;71195;52.528;5.704;2023-09-08T14:16:10;4.43;;;3.25;;
81799;SDS011;71195;52.528;5.704;2023-09-08T14:18:40;9.00;;;2.90;;
81799;SDS011;71195;52.528;5.704;2023-09-08T14:21:12;4.90;;;3.38;;
81799;SDS011;71195;52.528;5.704;2023-09-08T14:23:41;6.13;;;3.40;;
81799;SDS011;71195;52.528;5.704;2023-09-08T14:26:10;4.85;;;2.88;;
81799;SDS011;71195;52.528;5.704;2023-09-08T14:28:39;7.18;;;2.90;;
81799;SDS011;71195;52.528;5.704;2023-09-08T14:31:08;3.33;;;2.63;;
81799;SDS011;71195;52.528;5.704;2023-09-08T14:33:38;3.70;;;2.63;;
81799;SDS011;71195;52.528;5.704;2023-09-08T14:36:07;5.05;;;3.00;;
81799;SDS011;71195;52.528;5.704;2023-09-08T14:38:38;5.35;;;3.28;;
81799;SDS011;71195;52.528;5.704;2023-09-08T14:41:08;5.32;;;2.35;;
81799;SDS011;71195;52.528;5.704;2023-09-08T14:43:37;4.10;;;3.10;;
81799;SDS011;71195;52.528;5.704;2023-09-08T14:46:06;5.32;;;3.10;;
81799;SDS011;71195;52.528;5.704;2023-09-08T14:48:35;4.40;;;2.90;;
81799;SDS011;71195;52.528;5.704;2023-09-08T14:51:04;6.10;;;3.53;;
81799;SDS011;71195;52.528;5.704;2023-09-08T14:53:34;7.05;;;3.28;;
81799;SDS011;71195;52.528;5.704;2023-09-08T14:56:06;6.68;;;3.67;;
81799;SDS011;71195;52.528;5.704;2023-09-08T14:58:35;6.10;;;3.35;;
81799;SDS011;71195;52.528;5.704;2023-09-08T15:01:04;6.90;;;3.22;;
81799;SDS011;71195;52.528;5.704;2023-09-08T15:03:34;5.63;;;3.15;;
81799;SDS011;71195;52.528;5.704;2023-09-08T15:06:03;5.40;;;2.97;;
81799;SDS011;71195;52.528;5.704;2023-09-08T15:08:34;7.40;;;3.65;;
81799;SDS011;71195;52.528;5.704;2023-09-08T15:11:10;6.88;;;3.50;;
81799;SDS011;71195;52.528;5.704;2023-09-08T15:13:40;4.93;;;3.63;;
81799;SDS011;71195;52.528;5.704;2023-09-08T15:16:09;4.15;;;3.70;;
81799;SDS011;71195;52.528;5.704;2023-09-08T15:18:40;5.85;;;3.95;;
81799;SDS011;71195;52.528;5.704;2023-09-08T15:21:09;5.85;;;3.88;;
81799;SDS011;71195;52.528;5.704;2023-09-08T15:23:38;6.70;;;3.67;;
81799;SDS011;71195;52.528;5.704;2023-09-08T15:26:07;6.28;;;3.47;;
81799;SDS011;71195;52.528;5.704;2023-09-08T15:28:39;6.07;;;3.58;;
81799;SDS011;71195;52.528;5.704;2023-09-08T15:31:08;5.07;;;4.00;;
81799;SDS011;71195;52.528;5.704;2023-09-08T15:33:38;4.47;;;3.53;;